sensor_id;sensor_type;location;lat;lon;timestamp;P1;durP1;ratioP1;P2;durP2;ratioP2
52554;SDS011;38455;52.710;6.502;2023-03-01T00:01:15;25.63;;;14.68;;
52554;SDS011;38455;52.710;6.502;2023-03-01T00:03:43;23.65;;;14.25;;
52554;SDS011;38455;52.710;6.502;2023-03-01T00:06:09;23.80;;;14.98;;
52554;SDS011;38455;52.710;6.502;2023-03-01T00:08:35;27.25;;;14.75;;
52554;SDS011;38455;52.710;6.502;2023-03-01T00:13:29;24.67;;;15.65;;
52554;SDS011;38455;52.710;6.502;2023-03-01T00:15:55;30.20;;;16.40;;
52554;SDS011;38455;52.710;6.502;2023-03-01T00:18:21;26.27;;;16.00;;
52554;SDS011;38455;52.710;6.502;2023-03-01T00:20:51;27.80;;;16.45;;
52554;SDS011;38455;52.710;6.502;2023-03-01T00:23:18;27.75;;;15.63;;
52554;SDS011;38455;52.710;6.502;2023-03-01T00:25:43;26.70;;;15.57;;
52554;SDS011;38455;52.710;6.502;2023-03-01T00:28:10;31.50;;;16.70;;
52554;SDS011;38455;52.710;6.502;2023-03-01T00:30:36;26.70;;;15.73;;
52554;SDS011;38455;52.710;6.502;2023-03-01T00:33:02;34.28;;;16.52;;
52554;SDS011;38455;52.710;6.502;2023-03-01T00:35:27;33.00;;;18.05;;
52554;SDS011;38455;52.710;6.502;2023-03-01T00:37:53;35.45;;;20.17;;
52554;SDS011;38455;52.710;6.502;2023-03-01T00:40:29;31.25;;;18.63;;
52554;SDS011;38455;52.710;6.502;2023-03-01T00:42:56;36.38;;;18.83;;
52554;SDS011;38455;52.710;6.502;2023-03-01T00:45:22;30.58;;;16.83;;
52554;SDS011;38455;52.710;6.502;2023-03-01T00:47:49;36.15;;;18.88;;
52554;SDS011;38455;52.710;6.502;2023-03-01T00:50:16;32.50;;;19.02;;
52554;SDS011;38455;52.710;6.502;2023-03-01T00:52:42;36.15;;;20.65;;
52554;SDS011;38455;52.710;6.502;2023-03-01T00:55:08;34.20;;;20.67;;
52554;SDS011;38455;52.710;6.502;2023-03-01T00:57:35;34.80;;;19.98;;
52554;SDS011;38455;52.710;6.502;2023-03-01T01:00:00;35.33;;;20.40;;
52554;SDS011;38455;52.710;6.502;2023-03-01T01:02:26;31.52;;;17.52;;
52554;SDS011;38455;52.710;6.502;2023-03-01T01:04:52;34.50;;;18.67;;
52554;SDS011;38455;52.710;6.502;2023-03-01T01:07:17;29.92;;;18.48;;
52554;SDS011;38455;52.710;6.502;2023-03-01T01:09:45;30.88;;;18.35;;
52554;SDS011;38455;52.710;6.502;2023-03-01T01:12:11;34.72;;;19.45;;
52554;SDS011;38455;52.710;6.502;2023-03-01T01:14:37;33.13;;;18.90;;
52554;SDS011;38455;52.710;6.502;2023-03-01T01:17:02;35.65;;;19.88;;
52554;SDS011;38455;52.710;6.502;2023-03-01T01:19:29;36.13;;;20.98;;
52554;SDS011;38455;52.710;6.502;2023-03-01T01:21:54;34.08;;;20.08;;
52554;SDS011;38455;52.710;6.502;2023-03-01T01:24:20;37.78;;;20.42;;
52554;SDS011;38455;52.710;6.502;2023-03-01T01:26:46;37.10;;;20.33;;
52554;SDS011;38455;52.710;6.502;2023-03-01T01:29:11;33.88;;;20.30;;
52554;SDS011;38455;52.710;6.502;2023-03-01T01:31:38;40.05;;;21.40;;
52554;SDS011;38455;52.710;6.502;2023-03-01T01:34:06;36.63;;;19.77;;
52554;SDS011;38455;52.710;6.502;2023-03-01T01:36:36;37.95;;;19.90;;
52554;SDS011;38455;52.710;6.502;2023-03-01T01:39:02;33.03;;;19.73;;
52554;SDS011;38455;52.710;6.502;2023-03-01T01:41:28;33.65;;;19.02;;
52554;SDS011;38455;52.710;6.502;2023-03-01T01:46:58;31.25;;;18.58;;
52554;SDS011;38455;52.710;6.502;2023-03-01T01:49:54;33.28;;;19.08;;
52554;SDS011;38455;52.710;6.502;2023-03-01T01:52:21;32.78;;;19.30;;
52554;SDS011;38455;52.710;6.502;2023-03-01T01:57:19;29.40;;;18.55;;
52554;SDS011;38455;52.710;6.502;2023-03-01T02:00:11;32.45;;;19.17;;
52554;SDS011;38455;52.710;6.502;2023-03-01T02:02:43;31.00;;;19.08;;
52554;SDS011;38455;52.710;6.502;2023-03-01T02:05:15;37.05;;;20.77;;
52554;SDS011;38455;52.710;6.502;2023-03-01T02:07:58;33.92;;;18.73;;
52554;SDS011;38455;52.710;6.502;2023-03-01T02:10:24;36.65;;;21.13;;
52554;SDS011;38455;52.710;6.502;2023-03-01T02:12:52;38.42;;;21.73;;
52554;SDS011;38455;52.710;6.502;2023-03-01T02:15:18;36.03;;;19.85;;
52554;SDS011;38455;52.710;6.502;2023-03-01T02:17:44;37.00;;;20.55;;
52554;SDS011;38455;52.710;6.502;2023-03-01T02:22:51;43.25;;;23.00;;
52554;SDS011;38455;52.710;6.502;2023-03-01T02:30:58;32.25;;;19.27;;
52554;SDS011;38455;52.710;6.502;2023-03-01T02:33:42;37.80;;;19.40;;
52554;SDS011;38455;52.710;6.502;2023-03-01T02:36:11;37.83;;;21.38;;
52554;SDS011;38455;52.710;6.502;2023-03-01T02:38:41;45.25;;;23.10;;
52554;SDS011;38455;52.710;6.502;2023-03-01T02:41:07;43.90;;;22.88;;
52554;SDS011;38455;52.710;6.502;2023-03-01T02:43:35;48.20;;;23.48;;
52554;SDS011;38455;52.710;6.502;2023-03-01T02:46:03;45.60;;;22.45;;
52554;SDS011;38455;52.710;6.502;2023-03-01T02:48:41;38.78;;;20.23;;
52554;SDS011;38455;52.710;6.502;2023-03-01T02:54:17;166.02;;;29.20;;
52554;SDS011;38455;52.710;6.502;2023-03-01T02:56:45;74.53;;;26.00;;
52554;SDS011;38455;52.710;6.502;2023-03-01T02:59:14;65.25;;;27.08;;
52554;SDS011;38455;52.710;6.502;2023-03-01T03:01:43;89.28;;;27.20;;
52554;SDS011;38455;52.710;6.502;2023-03-01T03:04:09;61.33;;;27.35;;
52554;SDS011;38455;52.710;6.502;2023-03-01T03:06:36;44.40;;;23.00;;
52554;SDS011;38455;52.710;6.502;2023-03-01T03:09:03;47.20;;;22.83;;
52554;SDS011;38455;52.710;6.502;2023-03-01T03:11:30;79.65;;;26.90;;
52554;SDS011;38455;52.710;6.502;2023-03-01T03:13:57;130.07;;;28.83;;
52554;SDS011;38455;52.710;6.502;2023-03-01T03:16:23;59.90;;;23.90;;
52554;SDS011;38455;52.710;6.502;2023-03-01T03:18:49;79.13;;;25.63;;
52554;SDS011;38455;52.710;6.502;2023-03-01T03:21:16;94.07;;;28.17;;
52554;SDS011;38455;52.710;6.502;2023-03-01T03:23:42;129.00;;;27.10;;
52554;SDS011;38455;52.710;6.502;2023-03-01T03:26:08;258.60;;;33.05;;
52554;SDS011;38455;52.710;6.502;2023-03-01T03:28:38;385.50;;;35.30;;
52554;SDS011;38455;52.710;6.502;2023-03-01T03:31:05;495.70;;;40.83;;
52554;SDS011;38455;52.710;6.502;2023-03-01T03:33:32;433.77;;;41.33;;
52554;SDS011;38455;52.710;6.502;2023-03-01T03:35:58;363.60;;;34.80;;
52554;SDS011;38455;52.710;6.502;2023-03-01T03:38:23;373.25;;;34.92;;
52554;SDS011;38455;52.710;6.502;2023-03-01T03:40:50;175.23;;;28.10;;
52554;SDS011;38455;52.710;6.502;2023-03-01T03:43:31;185.25;;;27.45;;
52554;SDS011;38455;52.710;6.502;2023-03-01T03:45:57;185.52;;;25.95;;
52554;SDS011;38455;52.710;6.502;2023-03-01T03:48:23;308.05;;;33.15;;
52554;SDS011;38455;52.710;6.502;2023-03-01T03:50:51;267.05;;;30.52;;
52554;SDS011;38455;52.710;6.502;2023-03-01T03:53:19;280.80;;;33.20;;
52554;SDS011;38455;52.710;6.502;2023-03-01T03:55:46;238.77;;;33.08;;
52554;SDS011;38455;52.710;6.502;2023-03-01T03:58:14;192.57;;;27.23;;
52554;SDS011;38455;52.710;6.502;2023-03-01T04:00:42;183.45;;;28.83;;
52554;SDS011;38455;52.710;6.502;2023-03-01T04:03:09;89.95;;;23.60;;
52554;SDS011;38455;52.710;6.502;2023-03-01T04:05:36;73.38;;;23.45;;
52554;SDS011;38455;52.710;6.502;2023-03-01T04:08:03;83.43;;;23.48;;
52554;SDS011;38455;52.710;6.502;2023-03-01T04:10:39;66.10;;;24.23;;
52554;SDS011;38455;52.710;6.502;2023-03-01T04:13:06;34.65;;;19.55;;
52554;SDS011;38455;52.710;6.502;2023-03-01T04:15:34;33.95;;;18.38;;
52554;SDS011;38455;52.710;6.502;2023-03-01T04:18:00;32.85;;;18.73;;
52554;SDS011;38455;52.710;6.502;2023-03-01T04:20:28;33.22;;;18.17;;
52554;SDS011;38455;52.710;6.502;2023-03-01T04:23:03;29.17;;;17.65;;
52554;SDS011;38455;52.710;6.502;2023-03-01T04:25:36;31.63;;;17.27;;
52554;SDS011;38455;52.710;6.502;2023-03-01T04:28:07;28.70;;;17.23;;
52554;SDS011;38455;52.710;6.502;2023-03-01T04:30:34;25.80;;;15.93;;
52554;SDS011;38455;52.710;6.502;2023-03-01T04:33:07;27.10;;;16.80;;
52554;SDS011;38455;52.710;6.502;2023-03-01T04:35:34;30.70;;;16.58;;
52554;SDS011;38455;52.710;6.502;2023-03-01T04:38:01;28.40;;;17.65;;
52554;SDS011;38455;52.710;6.502;2023-03-01T04:40:27;31.05;;;18.17;;
52554;SDS011;38455;52.710;6.502;2023-03-01T04:42:52;31.58;;;18.70;;
52554;SDS011;38455;52.710;6.502;2023-03-01T04:45:18;28.27;;;17.15;;
52554;SDS011;38455;52.710;6.502;2023-03-01T04:47:45;29.73;;;17.15;;
52554;SDS011;38455;52.710;6.502;2023-03-01T04:50:15;25.27;;;15.48;;
52554;SDS011;38455;52.710;6.502;2023-03-01T04:52:45;24.85;;;15.43;;
52554;SDS011;38455;52.710;6.502;2023-03-01T04:55:12;27.80;;;16.20;;
52554;SDS011;38455;52.710;6.502;2023-03-01T04:57:38;25.20;;;15.73;;
52554;SDS011;38455;52.710;6.502;2023-03-01T05:00:05;24.08;;;14.77;;
52554;SDS011;38455;52.710;6.502;2023-03-01T05:02:55;22.67;;;14.05;;
52554;SDS011;38455;52.710;6.502;2023-03-01T05:05:24;26.50;;;15.63;;
52554;SDS011;38455;52.710;6.502;2023-03-01T05:07:51;25.17;;;14.63;;
52554;SDS011;38455;52.710;6.502;2023-03-01T05:10:17;28.27;;;15.25;;
52554;SDS011;38455;52.710;6.502;2023-03-01T05:12:43;25.45;;;16.48;;
52554;SDS011;38455;52.710;6.502;2023-03-01T05:15:09;28.88;;;15.55;;
52554;SDS011;38455;52.710;6.502;2023-03-01T05:17:35;27.35;;;15.88;;
52554;SDS011;38455;52.710;6.502;2023-03-01T05:20:01;30.20;;;15.43;;
52554;SDS011;38455;52.710;6.502;2023-03-01T05:22:31;43.00;;;17.48;;
52554;SDS011;38455;52.710;6.502;2023-03-01T05:24:57;34.58;;;17.83;;
52554;SDS011;38455;52.710;6.502;2023-03-01T05:27:22;34.03;;;16.90;;
52554;SDS011;38455;52.710;6.502;2023-03-01T05:29:48;32.42;;;16.60;;
52554;SDS011;38455;52.710;6.502;2023-03-01T05:32:13;30.17;;;15.95;;
52554;SDS011;38455;52.710;6.502;2023-03-01T05:34:40;41.75;;;16.02;;
52554;SDS011;38455;52.710;6.502;2023-03-01T05:37:07;36.00;;;16.30;;
52554;SDS011;38455;52.710;6.502;2023-03-01T05:39:33;37.90;;;16.42;;
52554;SDS011;38455;52.710;6.502;2023-03-01T05:41:59;44.10;;;17.42;;
52554;SDS011;38455;52.710;6.502;2023-03-01T05:44:29;40.85;;;19.23;;
52554;SDS011;38455;52.710;6.502;2023-03-01T05:46:55;43.10;;;17.10;;
52554;SDS011;38455;52.710;6.502;2023-03-01T05:49:21;36.28;;;17.58;;
52554;SDS011;38455;52.710;6.502;2023-03-01T05:51:51;43.55;;;17.42;;
52554;SDS011;38455;52.710;6.502;2023-03-01T05:54:18;40.72;;;17.70;;
52554;SDS011;38455;52.710;6.502;2023-03-01T05:56:45;37.80;;;17.00;;
52554;SDS011;38455;52.710;6.502;2023-03-01T05:59:11;36.53;;;17.58;;
52554;SDS011;38455;52.710;6.502;2023-03-01T06:01:37;41.92;;;18.23;;
52554;SDS011;38455;52.710;6.502;2023-03-01T06:04:03;39.78;;;18.40;;
52554;SDS011;38455;52.710;6.502;2023-03-01T06:06:29;33.92;;;16.30;;
52554;SDS011;38455;52.710;6.502;2023-03-01T06:08:58;27.27;;;15.35;;
52554;SDS011;38455;52.710;6.502;2023-03-01T06:11:24;36.90;;;18.30;;
52554;SDS011;38455;52.710;6.502;2023-03-01T06:13:49;30.38;;;18.75;;
52554;SDS011;38455;52.710;6.502;2023-03-01T06:16:15;34.95;;;16.00;;
52554;SDS011;38455;52.710;6.502;2023-03-01T06:18:41;31.25;;;16.63;;
52554;SDS011;38455;52.710;6.502;2023-03-01T06:21:07;38.38;;;18.25;;
52554;SDS011;38455;52.710;6.502;2023-03-01T06:23:33;35.78;;;18.10;;
52554;SDS011;38455;52.710;6.502;2023-03-01T06:26:00;33.78;;;18.35;;
52554;SDS011;38455;52.710;6.502;2023-03-01T06:28:29;30.05;;;17.85;;
52554;SDS011;38455;52.710;6.502;2023-03-01T06:30:55;29.35;;;18.10;;
52554;SDS011;38455;52.710;6.502;2023-03-01T06:33:21;29.40;;;17.88;;
52554;SDS011;38455;52.710;6.502;2023-03-01T06:35:49;28.70;;;17.20;;
52554;SDS011;38455;52.710;6.502;2023-03-01T06:38:15;28.77;;;16.27;;
52554;SDS011;38455;52.710;6.502;2023-03-01T06:40:43;32.17;;;18.15;;
52554;SDS011;38455;52.710;6.502;2023-03-01T06:43:09;31.77;;;17.65;;
52554;SDS011;38455;52.710;6.502;2023-03-01T06:45:34;28.50;;;16.83;;
52554;SDS011;38455;52.710;6.502;2023-03-01T06:48:05;31.17;;;17.20;;
52554;SDS011;38455;52.710;6.502;2023-03-01T06:50:33;31.77;;;17.70;;
52554;SDS011;38455;52.710;6.502;2023-03-01T06:52:59;32.40;;;18.40;;
52554;SDS011;38455;52.710;6.502;2023-03-01T06:55:25;34.90;;;17.92;;
52554;SDS011;38455;52.710;6.502;2023-03-01T06:57:55;33.47;;;19.27;;
52554;SDS011;38455;52.710;6.502;2023-03-01T07:00:21;33.92;;;18.75;;
52554;SDS011;38455;52.710;6.502;2023-03-01T07:02:48;41.13;;;21.77;;
52554;SDS011;38455;52.710;6.502;2023-03-01T07:05:13;36.83;;;21.05;;
52554;SDS011;38455;52.710;6.502;2023-03-01T07:07:39;37.95;;;21.83;;
52554;SDS011;38455;52.710;6.502;2023-03-01T07:10:05;36.70;;;20.02;;
52554;SDS011;38455;52.710;6.502;2023-03-01T07:12:31;35.88;;;20.45;;
52554;SDS011;38455;52.710;6.502;2023-03-01T07:14:57;36.75;;;20.23;;
52554;SDS011;38455;52.710;6.502;2023-03-01T07:17:23;39.17;;;20.77;;
52554;SDS011;38455;52.710;6.502;2023-03-01T07:19:48;38.03;;;20.52;;
52554;SDS011;38455;52.710;6.502;2023-03-01T07:22:14;37.08;;;20.17;;
52554;SDS011;38455;52.710;6.502;2023-03-01T07:24:40;36.50;;;20.08;;
52554;SDS011;38455;52.710;6.502;2023-03-01T07:27:06;36.05;;;20.67;;
52554;SDS011;38455;52.710;6.502;2023-03-01T07:29:32;35.60;;;21.02;;
52554;SDS011;38455;52.710;6.502;2023-03-01T07:31:57;38.17;;;20.00;;
52554;SDS011;38455;52.710;6.502;2023-03-01T07:34:23;37.03;;;22.23;;
52554;SDS011;38455;52.710;6.502;2023-03-01T07:36:49;39.72;;;23.25;;
52554;SDS011;38455;52.710;6.502;2023-03-01T07:39:15;37.22;;;22.65;;
52554;SDS011;38455;52.710;6.502;2023-03-01T07:41:40;32.20;;;20.17;;
52554;SDS011;38455;52.710;6.502;2023-03-01T07:44:06;34.35;;;20.85;;
52554;SDS011;38455;52.710;6.502;2023-03-01T07:46:32;30.02;;;19.52;;
52554;SDS011;38455;52.710;6.502;2023-03-01T07:48:58;34.45;;;20.98;;
52554;SDS011;38455;52.710;6.502;2023-03-01T07:51:24;32.70;;;20.17;;
52554;SDS011;38455;52.710;6.502;2023-03-01T07:53:49;27.77;;;19.35;;
52554;SDS011;38455;52.710;6.502;2023-03-01T07:56:15;29.73;;;20.15;;
52554;SDS011;38455;52.710;6.502;2023-03-01T07:58:43;29.92;;;20.58;;
52554;SDS011;38455;52.710;6.502;2023-03-01T08:01:11;28.73;;;19.17;;
52554;SDS011;38455;52.710;6.502;2023-03-01T08:03:38;30.30;;;18.65;;
52554;SDS011;38455;52.710;6.502;2023-03-01T08:06:04;29.20;;;18.70;;
52554;SDS011;38455;52.710;6.502;2023-03-01T08:08:31;26.42;;;18.17;;
52554;SDS011;38455;52.710;6.502;2023-03-01T08:10:58;25.48;;;17.33;;
52554;SDS011;38455;52.710;6.502;2023-03-01T08:13:25;22.25;;;16.08;;
52554;SDS011;38455;52.710;6.502;2023-03-01T08:15:51;19.35;;;14.23;;
52554;SDS011;38455;52.710;6.502;2023-03-01T08:18:18;20.38;;;14.00;;
52554;SDS011;38455;52.710;6.502;2023-03-01T08:20:44;18.70;;;14.55;;
52554;SDS011;38455;52.710;6.502;2023-03-01T08:23:10;19.90;;;14.15;;
52554;SDS011;38455;52.710;6.502;2023-03-01T08:25:36;20.15;;;13.35;;
52554;SDS011;38455;52.710;6.502;2023-03-01T08:28:03;17.08;;;12.15;;
52554;SDS011;38455;52.710;6.502;2023-03-01T08:30:28;20.63;;;12.63;;
52554;SDS011;38455;52.710;6.502;2023-03-01T08:32:54;21.30;;;13.15;;
52554;SDS011;38455;52.710;6.502;2023-03-01T08:35:20;18.50;;;13.32;;
52554;SDS011;38455;52.710;6.502;2023-03-01T08:37:46;19.70;;;12.02;;
52554;SDS011;38455;52.710;6.502;2023-03-01T08:40:12;19.42;;;14.32;;
52554;SDS011;38455;52.710;6.502;2023-03-01T08:42:39;16.42;;;12.48;;
52554;SDS011;38455;52.710;6.502;2023-03-01T08:45:08;17.90;;;12.82;;
52554;SDS011;38455;52.710;6.502;2023-03-01T08:47:34;17.00;;;11.32;;
52554;SDS011;38455;52.710;6.502;2023-03-01T08:50:00;15.63;;;11.50;;
52554;SDS011;38455;52.710;6.502;2023-03-01T08:52:25;19.10;;;11.48;;
52554;SDS011;38455;52.710;6.502;2023-03-01T08:54:51;17.70;;;12.35;;
52554;SDS011;38455;52.710;6.502;2023-03-01T08:57:18;16.35;;;11.43;;
52554;SDS011;38455;52.710;6.502;2023-03-01T08:59:44;12.40;;;8.93;;
52554;SDS011;38455;52.710;6.502;2023-03-01T09:02:11;14.95;;;9.07;;
52554;SDS011;38455;52.710;6.502;2023-03-01T09:04:39;11.25;;;8.80;;
52554;SDS011;38455;52.710;6.502;2023-03-01T09:07:04;11.73;;;9.63;;
52554;SDS011;38455;52.710;6.502;2023-03-01T09:09:30;17.20;;;9.20;;
52554;SDS011;38455;52.710;6.502;2023-03-01T09:11:56;14.68;;;8.98;;
52554;SDS011;38455;52.710;6.502;2023-03-01T09:14:22;13.48;;;8.57;;
52554;SDS011;38455;52.710;6.502;2023-03-01T09:16:48;12.55;;;8.30;;
52554;SDS011;38455;52.710;6.502;2023-03-01T09:19:14;11.63;;;9.45;;
52554;SDS011;38455;52.710;6.502;2023-03-01T09:21:39;11.38;;;7.88;;
52554;SDS011;38455;52.710;6.502;2023-03-01T09:24:06;9.93;;;6.93;;
52554;SDS011;38455;52.710;6.502;2023-03-01T09:26:38;13.23;;;8.38;;
52554;SDS011;38455;52.710;6.502;2023-03-01T09:29:03;11.50;;;7.80;;
52554;SDS011;38455;52.710;6.502;2023-03-01T09:31:29;13.93;;;7.20;;
52554;SDS011;38455;52.710;6.502;2023-03-01T09:33:54;8.82;;;7.07;;
52554;SDS011;38455;52.710;6.502;2023-03-01T09:36:21;9.10;;;6.05;;
52554;SDS011;38455;52.710;6.502;2023-03-01T09:38:48;11.55;;;6.72;;
52554;SDS011;38455;52.710;6.502;2023-03-01T09:44:25;7.47;;;6.00;;
52554;SDS011;38455;52.710;6.502;2023-03-01T09:46:52;13.45;;;6.18;;
52554;SDS011;38455;52.710;6.502;2023-03-01T09:49:19;8.73;;;5.72;;
52554;SDS011;38455;52.710;6.502;2023-03-01T09:51:53;10.07;;;5.95;;
52554;SDS011;38455;52.710;6.502;2023-03-01T09:54:24;6.18;;;4.65;;
52554;SDS011;38455;52.710;6.502;2023-03-01T09:57:33;6.30;;;4.07;;
52554;SDS011;38455;52.710;6.502;2023-03-01T10:10:31;5.63;;;3.33;;
52554;SDS011;38455;52.710;6.502;2023-03-01T10:13:00;5.97;;;2.85;;
52554;SDS011;38455;52.710;6.502;2023-03-01T10:15:36;5.95;;;3.30;;
52554;SDS011;38455;52.710;6.502;2023-03-01T10:18:12;5.28;;;2.83;;
52554;SDS011;38455;52.710;6.502;2023-03-01T10:20:51;4.78;;;2.85;;
52554;SDS011;38455;52.710;6.502;2023-03-01T10:23:26;4.45;;;3.22;;
52554;SDS011;38455;52.710;6.502;2023-03-01T10:26:12;5.68;;;3.30;;
52554;SDS011;38455;52.710;6.502;2023-03-01T10:31:20;5.25;;;3.50;;
52554;SDS011;38455;52.710;6.502;2023-03-01T10:33:53;4.47;;;2.72;;
52554;SDS011;38455;52.710;6.502;2023-03-01T10:36:20;8.90;;;3.55;;
52554;SDS011;38455;52.710;6.502;2023-03-01T10:38:56;5.63;;;3.45;;
52554;SDS011;38455;52.710;6.502;2023-03-01T10:43:50;6.40;;;3.83;;
52554;SDS011;38455;52.710;6.502;2023-03-01T10:51:42;5.30;;;3.75;;
52554;SDS011;38455;52.710;6.502;2023-03-01T10:56:51;5.75;;;3.88;;
52554;SDS011;38455;52.710;6.502;2023-03-01T10:59:26;8.40;;;3.85;;
52554;SDS011;38455;52.710;6.502;2023-03-01T11:04:34;5.63;;;4.15;;
52554;SDS011;38455;52.710;6.502;2023-03-01T11:07:00;7.28;;;3.75;;
52554;SDS011;38455;52.710;6.502;2023-03-01T11:09:30;7.93;;;3.97;;
52554;SDS011;38455;52.710;6.502;2023-03-01T11:12:02;7.40;;;4.00;;
52554;SDS011;38455;52.710;6.502;2023-03-01T11:14:33;6.35;;;3.92;;
52554;SDS011;38455;52.710;6.502;2023-03-01T11:17:05;8.02;;;4.60;;
52554;SDS011;38455;52.710;6.502;2023-03-01T11:19:40;7.07;;;3.92;;
52554;SDS011;38455;52.710;6.502;2023-03-01T11:22:07;7.22;;;3.70;;
52554;SDS011;38455;52.710;6.502;2023-03-01T11:24:40;4.10;;;3.22;;
52554;SDS011;38455;52.710;6.502;2023-03-01T11:27:17;4.75;;;3.70;;
52554;SDS011;38455;52.710;6.502;2023-03-01T11:30:01;5.65;;;3.70;;
52554;SDS011;38455;52.710;6.502;2023-03-01T11:32:50;5.28;;;4.10;;
52554;SDS011;38455;52.710;6.502;2023-03-01T11:35:20;7.53;;;5.57;;
52554;SDS011;38455;52.710;6.502;2023-03-01T11:54:45;6.55;;;3.70;;
52554;SDS011;38455;52.710;6.502;2023-03-01T12:03:30;6.00;;;3.67;;
52554;SDS011;38455;52.710;6.502;2023-03-01T12:06:08;6.15;;;3.92;;
52554;SDS011;38455;52.710;6.502;2023-03-01T12:22:39;5.85;;;4.53;;
52554;SDS011;38455;52.710;6.502;2023-03-01T12:25:25;6.00;;;4.45;;
52554;SDS011;38455;52.710;6.502;2023-03-01T12:28:13;11.65;;;4.70;;
52554;SDS011;38455;52.710;6.502;2023-03-01T12:38:48;6.07;;;4.60;;
52554;SDS011;38455;52.710;6.502;2023-03-01T12:44:04;7.43;;;4.90;;
52554;SDS011;38455;52.710;6.502;2023-03-01T12:49:36;5.30;;;4.00;;
52554;SDS011;38455;52.710;6.502;2023-03-01T12:52:14;8.20;;;4.82;;
52554;SDS011;38455;52.710;6.502;2023-03-01T12:54:48;6.82;;;4.65;;
52554;SDS011;38455;52.710;6.502;2023-03-01T12:57:27;5.97;;;4.00;;
52554;SDS011;38455;52.710;6.502;2023-03-01T13:02:41;5.85;;;4.55;;
52554;SDS011;38455;52.710;6.502;2023-03-01T13:05:51;6.82;;;4.57;;
52554;SDS011;38455;52.710;6.502;2023-03-01T13:08:23;8.43;;;4.60;;
52554;SDS011;38455;52.710;6.502;2023-03-01T13:11:02;9.40;;;4.38;;
52554;SDS011;38455;52.710;6.502;2023-03-01T13:13:30;9.13;;;4.85;;
52554;SDS011;38455;52.710;6.502;2023-03-01T13:15:56;6.43;;;4.97;;
52554;SDS011;38455;52.710;6.502;2023-03-01T13:18:42;6.57;;;4.28;;
52554;SDS011;38455;52.710;6.502;2023-03-01T13:21:07;8.15;;;4.95;;
52554;SDS011;38455;52.710;6.502;2023-03-01T13:23:35;6.72;;;4.43;;
52554;SDS011;38455;52.710;6.502;2023-03-01T13:33:48;9.35;;;4.88;;
52554;SDS011;38455;52.710;6.502;2023-03-01T13:44:36;7.68;;;5.30;;
52554;SDS011;38455;52.710;6.502;2023-03-01T13:52:23;8.60;;;5.10;;
52554;SDS011;38455;52.710;6.502;2023-03-01T13:57:39;7.28;;;5.15;;
52554;SDS011;38455;52.710;6.502;2023-03-01T14:00:30;10.00;;;5.95;;
52554;SDS011;38455;52.710;6.502;2023-03-01T14:03:05;8.70;;;5.55;;
52554;SDS011;38455;52.710;6.502;2023-03-01T14:05:37;10.90;;;5.40;;
52554;SDS011;38455;52.710;6.502;2023-03-01T14:08:04;11.00;;;5.63;;
52554;SDS011;38455;52.710;6.502;2023-03-01T14:10:39;9.85;;;5.45;;
52554;SDS011;38455;52.710;6.502;2023-03-01T14:13:22;7.95;;;5.20;;
52554;SDS011;38455;52.710;6.502;2023-03-01T14:16:07;9.98;;;4.90;;
52554;SDS011;38455;52.710;6.502;2023-03-01T14:21:27;9.82;;;5.47;;
52554;SDS011;38455;52.710;6.502;2023-03-01T14:23:54;10.32;;;5.93;;
52554;SDS011;38455;52.710;6.502;2023-03-01T14:26:20;8.57;;;4.72;;
52554;SDS011;38455;52.710;6.502;2023-03-01T14:28:47;8.85;;;5.63;;
52554;SDS011;38455;52.710;6.502;2023-03-01T14:34:05;9.15;;;5.55;;
52554;SDS011;38455;52.710;6.502;2023-03-01T14:36:31;11.77;;;5.30;;
52554;SDS011;38455;52.710;6.502;2023-03-01T14:38:59;11.00;;;5.75;;
52554;SDS011;38455;52.710;6.502;2023-03-01T14:41:31;10.77;;;6.13;;
52554;SDS011;38455;52.710;6.502;2023-03-01T14:44:12;10.27;;;6.15;;
52554;SDS011;38455;52.710;6.502;2023-03-01T14:46:51;9.40;;;6.38;;
52554;SDS011;38455;52.710;6.502;2023-03-01T14:49:30;8.35;;;6.13;;
52554;SDS011;38455;52.710;6.502;2023-03-01T14:52:00;9.45;;;6.38;;
52554;SDS011;38455;52.710;6.502;2023-03-01T14:54:42;12.25;;;8.07;;
52554;SDS011;38455;52.710;6.502;2023-03-01T14:57:14;10.02;;;7.05;;
52554;SDS011;38455;52.710;6.502;2023-03-01T14:59:44;9.98;;;6.70;;
52554;SDS011;38455;52.710;6.502;2023-03-01T15:02:15;10.98;;;7.13;;
52554;SDS011;38455;52.710;6.502;2023-03-01T15:04:51;15.18;;;8.05;;
52554;SDS011;38455;52.710;6.502;2023-03-01T15:07:21;11.00;;;7.18;;
52554;SDS011;38455;52.710;6.502;2023-03-01T15:09:51;11.57;;;7.50;;
52554;SDS011;38455;52.710;6.502;2023-03-01T15:14:52;11.13;;;6.78;;
52554;SDS011;38455;52.710;6.502;2023-03-01T15:17:35;9.60;;;6.82;;
52554;SDS011;38455;52.710;6.502;2023-03-01T15:20:04;10.80;;;7.60;;
52554;SDS011;38455;52.710;6.502;2023-03-01T15:22:32;12.35;;;7.53;;
52554;SDS011;38455;52.710;6.502;2023-03-01T15:24:58;11.65;;;7.25;;
52554;SDS011;38455;52.710;6.502;2023-03-01T15:27:24;13.45;;;7.85;;
52554;SDS011;38455;52.710;6.502;2023-03-01T15:29:58;13.10;;;7.53;;
52554;SDS011;38455;52.710;6.502;2023-03-01T15:32:35;14.57;;;8.30;;
52554;SDS011;38455;52.710;6.502;2023-03-01T15:40:58;14.88;;;7.75;;
52554;SDS011;38455;52.710;6.502;2023-03-01T15:43:39;12.82;;;7.88;;
52554;SDS011;38455;52.710;6.502;2023-03-01T15:48:48;16.02;;;8.18;;
52554;SDS011;38455;52.710;6.502;2023-03-01T15:51:17;14.93;;;7.85;;
52554;SDS011;38455;52.710;6.502;2023-03-01T15:53:50;13.23;;;8.32;;
52554;SDS011;38455;52.710;6.502;2023-03-01T15:56:17;15.35;;;8.80;;
52554;SDS011;38455;52.710;6.502;2023-03-01T15:58:43;15.77;;;7.90;;
52554;SDS011;38455;52.710;6.502;2023-03-01T16:01:15;11.60;;;7.78;;
52554;SDS011;38455;52.710;6.502;2023-03-01T16:03:42;10.73;;;7.57;;
52554;SDS011;38455;52.710;6.502;2023-03-01T16:06:11;13.13;;;7.78;;
52554;SDS011;38455;52.710;6.502;2023-03-01T16:08:37;11.60;;;7.80;;
52554;SDS011;38455;52.710;6.502;2023-03-01T16:11:16;11.82;;;8.07;;
52554;SDS011;38455;52.710;6.502;2023-03-01T16:13:43;14.80;;;8.25;;
52554;SDS011;38455;52.710;6.502;2023-03-01T16:16:10;13.60;;;8.02;;
52554;SDS011;38455;52.710;6.502;2023-03-01T16:18:39;16.08;;;8.00;;
52554;SDS011;38455;52.710;6.502;2023-03-01T16:21:05;11.38;;;7.00;;
52554;SDS011;38455;52.710;6.502;2023-03-01T16:23:31;12.05;;;7.32;;
52554;SDS011;38455;52.710;6.502;2023-03-01T16:26:00;15.48;;;8.82;;
52554;SDS011;38455;52.710;6.502;2023-03-01T16:28:26;16.50;;;7.88;;
52554;SDS011;38455;52.710;6.502;2023-03-01T16:30:52;11.52;;;7.88;;
52554;SDS011;38455;52.710;6.502;2023-03-01T16:33:17;13.93;;;8.15;;
52554;SDS011;38455;52.710;6.502;2023-03-01T16:35:43;15.15;;;7.25;;
52554;SDS011;38455;52.710;6.502;2023-03-01T16:38:09;14.30;;;8.23;;
52554;SDS011;38455;52.710;6.502;2023-03-01T16:40:35;12.52;;;7.20;;
52554;SDS011;38455;52.710;6.502;2023-03-01T16:43:01;12.30;;;7.88;;
52554;SDS011;38455;52.710;6.502;2023-03-01T16:45:27;13.20;;;8.38;;
52554;SDS011;38455;52.710;6.502;2023-03-01T16:47:57;11.55;;;8.23;;
52554;SDS011;38455;52.710;6.502;2023-03-01T16:50:23;12.57;;;7.85;;
52554;SDS011;38455;52.710;6.502;2023-03-01T16:52:49;14.20;;;8.57;;
52554;SDS011;38455;52.710;6.502;2023-03-01T16:55:15;14.82;;;9.45;;
52554;SDS011;38455;52.710;6.502;2023-03-01T16:57:41;15.85;;;8.65;;
52554;SDS011;38455;52.710;6.502;2023-03-01T17:00:07;12.98;;;8.68;;
52554;SDS011;38455;52.710;6.502;2023-03-01T17:02:37;14.98;;;9.27;;